Weather History for KGGE - November, 2012

Change the Weather History Date:

Wednesday, November 21, 2012

  Actual Average Record
Temperature  
Mean Temperature 50 °F -  
Max Temperature 60 °F 68 °F 78 °F (2011)
Min Temperature 41 °F 46 °F 35 °F (2014)
Degree Days  
Heating Degree Days 14    
Moisture  
Dew Point 44 °F    
Average Humidity 82    
Maximum Humidity 100    
Minimum Humidity 55    
Precipitation  
Precipitation 0.00 in - - ()
Sea Level Pressure  
Sea Level Pressure 30.09 in    
Wind  
Wind Speed 5 mph (North)    
Max Wind Speed 15 mph    
Max Gust Speed 20 mph    
Visibility 10 miles    
Events      
Averages and records for this station are not official NWS values.
T = Trace of Precipitation, MM = Missing Value Source: NWS Daily Summary

Daily Weather History Graph

Daily Weather History Graph

Search for Another Location

Airport or City:

Trip Planner

Search our weather history database for the weather conditions in past years. The results will help you decide how hot, cold, wet, or windy it might be!

Date:

Astronomy

Nov. 21, 2012 Rise Set
Actual Time 6:54 AM EST 5:11 PM EST
Civil Twilight 6:27 AM EST 5:38 PM EST
Nautical Twilight 5:57 AM EST 6:08 PM EST
Astronomical Twilight 5:27 AM EST 6:38 PM EST
Moon 1:10 PM EST (11/21) 12:30 AM EST (11/21)
Length of Visible Light 11h 10m
Length of Day
10h 17m
First Quarter, 61% of the Moon is Illuminated
Nov 21
First Quarter
Nov 28
Full
Dec 6
Last Quarter
Dec 13
New
Dec 20
First Quarter

Hourly Weather History & Observations

Time (EST) Temp. Windchill Dew Point Humidity Pressure Visibility Wind Dir Wind Speed Gust Speed Precip Events Conditions
12:35 AM 42.8 °F - 42.8 °F 100% 30.08 in 4.0 mi Calm Calm - N/A   Clear
1:15 AM 44.6 °F - 44.6 °F 100% 30.07 in 10.0 mi Calm Calm - N/A   Clear
1:55 AM 42.8 °F - 42.8 °F 100% 30.07 in 10.0 mi Calm Calm - N/A   Clear
2:35 AM 42.8 °F - 42.8 °F 100% 30.07 in 10.0 mi Calm Calm - N/A   Clear
3:15 AM 42.8 °F - 42.8 °F 100% 30.06 in 10.0 mi Calm Calm - N/A   Clear
3:35 AM 42.8 °F - 42.8 °F 100% 30.07 in 10.0 mi Calm Calm - N/A   Clear
3:55 AM 42.8 °F - 42.8 °F 100% 30.06 in 10.0 mi Calm Calm - N/A   Clear
4:15 AM 42.8 °F - 42.8 °F 100% 30.06 in 10.0 mi Calm Calm - N/A   Clear
4:35 AM 42.8 °F 41.1 °F 42.8 °F 100% 30.07 in 10.0 mi NNW 3.5 mph - N/A   Clear
4:55 AM 42.8 °F - 42.8 °F 100% 30.07 in 10.0 mi Calm Calm - N/A   Clear
5:15 AM 42.8 °F 41.1 °F 42.8 °F 100% 30.07 in 10.0 mi North 3.5 mph - N/A   Clear
5:35 AM 42.8 °F 41.1 °F 42.8 °F 100% 30.08 in 10.0 mi North 3.5 mph - N/A   Clear
5:55 AM 42.8 °F 41.1 °F 42.8 °F 100% 30.08 in 10.0 mi NNW 3.5 mph - N/A   Clear
6:15 AM 42.8 °F - 42.8 °F 100% 30.08 in 10.0 mi Calm Calm - N/A   Clear
6:35 AM 42.8 °F - 42.8 °F 100% 30.09 in 7.0 mi Calm Calm - N/A   Clear
6:55 AM 42.8 °F 41.1 °F 42.8 °F 100% 30.09 in 7.0 mi North 3.5 mph - N/A   Clear
7:15 AM 41.0 °F 39.0 °F 41.0 °F 100% 30.10 in 5.0 mi NNE 3.5 mph - N/A   Clear
7:35 AM 42.8 °F 41.1 °F 42.8 °F 100% 30.10 in 5.0 mi North 3.5 mph - N/A   Clear
7:55 AM 44.6 °F 42.2 °F 44.6 °F 100% 30.11 in 7.0 mi North 4.6 mph - N/A   Clear
8:15 AM 46.4 °F 43.5 °F 46.4 °F 100% 30.11 in 10.0 mi North 5.8 mph - N/A   Clear
8:35 AM 46.4 °F 41.9 °F 46.4 °F 100% 30.12 in 10.0 mi NNE 9.2 mph - N/A   Clear
8:55 AM 50.0 °F - 48.2 °F 94% 30.12 in 10.0 mi NNE 9.2 mph - N/A   Clear
9:15 AM 50.0 °F - 46.4 °F 87% 30.12 in 10.0 mi NNE 9.2 mph - N/A   Clear
9:35 AM 51.8 °F - 46.4 °F 82% 30.12 in 10.0 mi NNE 9.2 mph 12.7 mph N/A   Clear
9:55 AM 53.6 °F - 46.4 °F 77% 30.12 in 10.0 mi NNE 10.4 mph 16.1 mph N/A   Clear
10:15 AM 53.6 °F - 46.4 °F 77% 30.12 in 10.0 mi North 15.0 mph 19.6 mph N/A   Clear
10:35 AM 55.4 °F - 46.4 °F 72% 30.12 in 10.0 mi North 13.8 mph 18.4 mph N/A   Clear
10:55 AM 55.4 °F - 46.4 °F 72% 30.11 in 10.0 mi North 10.4 mph 16.1 mph N/A   Scattered Clouds
11:15 AM 57.2 °F - 46.4 °F 67% 30.10 in 10.0 mi North 12.7 mph 19.6 mph N/A   Clear
11:35 AM 57.2 °F - 44.6 °F 63% 30.10 in 10.0 mi North 10.4 mph 18.4 mph N/A   Clear
12:15 PM 59.0 °F - 44.6 °F 59% 30.08 in 10.0 mi North 12.7 mph - N/A   Clear
12:35 PM 59.0 °F - 44.6 °F 59% 30.07 in 10.0 mi North 12.7 mph 19.6 mph N/A   Clear
1:15 PM 59.0 °F - 44.6 °F 59% 30.07 in 10.0 mi North 11.5 mph 19.6 mph N/A   Clear
1:35 PM 59.0 °F - 44.6 °F 59% 30.06 in 10.0 mi NNW 9.2 mph - N/A   Clear
1:55 PM 59.0 °F - 44.6 °F 59% 30.06 in 10.0 mi North 10.4 mph - N/A   Clear
2:15 PM 60.8 °F - 44.6 °F 55% 30.06 in 10.0 mi NNW 10.4 mph 18.4 mph N/A   Clear
2:35 PM 59.0 °F - 44.6 °F 59% 30.06 in 10.0 mi NNW 13.8 mph 18.4 mph N/A   Clear
2:55 PM 59.0 °F - 44.6 °F 59% 30.06 in 10.0 mi North 11.5 mph 18.4 mph N/A   Clear
3:15 PM 59.0 °F - 44.6 °F 59% 30.06 in 10.0 mi North 10.4 mph - N/A   Clear
3:35 PM 59.0 °F - 44.6 °F 59% 30.06 in 10.0 mi North 12.7 mph 16.1 mph N/A   Clear
3:55 PM 57.2 °F - 44.6 °F 63% 30.07 in 10.0 mi North 9.2 mph - N/A   Clear
4:15 PM 57.2 °F - 46.4 °F 67% 30.07 in 10.0 mi North 9.2 mph - N/A   Clear
4:55 PM 55.4 °F - 46.4 °F 72% 30.07 in 10.0 mi NNW 5.8 mph - N/A   Clear
5:15 PM 53.6 °F - 46.4 °F 77% 30.08 in 10.0 mi NNW 3.5 mph - N/A   Clear
5:35 PM 53.6 °F - 46.4 °F 77% 30.08 in 10.0 mi NNW 3.5 mph - N/A   Clear
5:55 PM 51.8 °F - 46.4 °F 82% 30.09 in 10.0 mi NNW 3.5 mph - N/A   Clear
6:15 PM 51.8 °F - 44.6 °F 76% 30.10 in 10.0 mi North 4.6 mph - N/A   Clear
6:35 PM 51.8 °F - 44.6 °F 76% 30.10 in 10.0 mi North 4.6 mph - N/A   Clear
6:55 PM 51.8 °F - 44.6 °F 76% 30.11 in 10.0 mi NNW 4.6 mph - N/A   Clear
7:15 PM 50.0 °F - 44.6 °F 82% 30.11 in 10.0 mi North 6.9 mph - N/A   Clear
7:35 PM 50.0 °F - 44.6 °F 82% 30.11 in 10.0 mi NNW 8.1 mph - N/A   Clear
7:55 PM 50.0 °F - 44.6 °F 82% 30.12 in 10.0 mi North 8.1 mph - N/A   Clear
8:15 PM 50.0 °F - 44.6 °F 82% 30.11 in 10.0 mi NNW 8.1 mph - N/A   Clear
8:35 PM 48.2 °F - 44.6 °F 87% 30.11 in 10.0 mi North 8.1 mph - N/A   Clear
8:55 PM 48.2 °F - 42.8 °F 82% 30.12 in 10.0 mi North 6.9 mph - N/A   Clear
9:15 PM 48.2 °F - 42.8 °F 82% 30.12 in 10.0 mi North 6.9 mph - N/A   Clear
9:35 PM 50.0 °F - 42.8 °F 76% 30.12 in 10.0 mi North 6.9 mph - N/A   Clear
9:55 PM 50.0 °F - 41.0 °F 71% 30.12 in 10.0 mi North 10.4 mph - N/A   Clear
10:15 PM 48.2 °F - 41.0 °F 76% 30.12 in 10.0 mi NNE 8.1 mph - N/A   Clear
10:35 PM 48.2 °F - 41.0 °F 76% 30.13 in 10.0 mi NNE 8.1 mph - N/A   Clear
10:55 PM 46.4 °F 42.4 °F 41.0 °F 81% 30.14 in 10.0 mi NNE 8.1 mph - N/A   Clear
11:15 PM 46.4 °F 42.4 °F 41.0 °F 81% 30.13 in 10.0 mi NNE 8.1 mph - N/A   Clear
11:35 PM 46.4 °F 42.4 °F 41.0 °F 81% 30.13 in 10.0 mi North 8.1 mph - N/A   Clear
11:55 PM 46.4 °F 42.4 °F 39.2 °F 76% 30.13 in 10.0 mi North 8.1 mph - N/A   Clear